createdAt,value
2019-03-04T00:02:06.253Z,3.20
2019-03-04T00:04:33.439Z,3.37
2019-03-04T00:07:00.616Z,3.03
2019-03-04T00:09:27.868Z,3.10
2019-03-04T00:11:55.037Z,2.90
2019-03-04T00:14:22.211Z,3.13
2019-03-04T00:16:49.409Z,3.73
2019-03-04T00:19:17.115Z,3.70
2019-03-04T00:21:44.286Z,3.37
2019-03-04T00:24:11.452Z,3.47
2019-03-04T00:26:38.634Z,3.47
2019-03-04T00:29:05.790Z,3.03
2019-03-04T00:31:32.980Z,3.13
2019-03-04T00:34:00.166Z,3.00
2019-03-04T00:36:27.355Z,3.33
2019-03-04T00:38:54.520Z,2.73
2019-03-04T00:41:21.695Z,3.27
2019-03-04T00:43:49.043Z,3.30
2019-03-04T00:46:16.866Z,3.40
2019-03-04T00:48:44.043Z,3.37
2019-03-04T00:51:11.225Z,3.37
2019-03-04T00:53:38.410Z,3.77
2019-03-04T00:56:05.582Z,2.73
2019-03-04T00:58:32.763Z,3.50
2019-03-04T01:00:59.933Z,4.10
2019-03-04T01:03:27.111Z,3.77
2019-03-04T01:05:54.680Z,3.33
2019-03-04T01:08:21.884Z,4.10
2019-03-04T01:10:49.050Z,3.60
2019-03-04T01:13:16.218Z,3.13
2019-03-04T01:15:43.406Z,2.97
2019-03-04T01:18:10.570Z,2.47
2019-03-04T01:20:37.747Z,2.20
2019-03-04T01:23:04.942Z,3.30
2019-03-04T01:25:32.115Z,3.33
2019-03-04T01:27:59.286Z,2.80
2019-03-04T01:30:26.492Z,3.27
2019-03-04T01:32:54.254Z,3.33
2019-03-04T01:35:21.456Z,3.50
2019-03-04T01:37:48.636Z,2.90
2019-03-04T01:40:17.643Z,2.87
2019-03-04T01:42:44.818Z,2.80
2019-03-04T01:45:14.177Z,2.97
2019-03-04T01:47:41.354Z,2.53
2019-03-04T01:50:12.654Z,3.70
2019-03-04T01:52:39.841Z,3.03
2019-03-04T01:55:08.399Z,2.50
2019-03-04T01:57:35.561Z,3.13
2019-03-04T02:00:02.730Z,2.40
2019-03-04T02:02:29.902Z,2.90
2019-03-04T02:04:57.078Z,2.60
2019-03-04T02:07:24.269Z,3.20
2019-03-04T02:09:51.490Z,3.40
2019-03-04T02:12:18.663Z,3.03
2019-03-04T02:14:45.842Z,2.83
2019-03-04T02:17:13.362Z,2.83
2019-03-04T02:19:40.536Z,3.10
2019-03-04T02:22:07.710Z,2.90
2019-03-04T02:24:34.876Z,2.80
2019-03-04T02:27:02.047Z,3.07
2019-03-04T02:29:29.242Z,3.23
2019-03-04T02:31:56.416Z,3.07
2019-03-04T02:34:23.577Z,3.40
2019-03-04T02:36:50.765Z,3.23
2019-03-04T02:39:17.944Z,2.80
2019-03-04T02:41:45.123Z,2.80
2019-03-04T02:44:12.322Z,2.17
2019-03-04T02:46:39.503Z,3.30
2019-03-04T02:49:06.666Z,2.70
2019-03-04T02:51:33.843Z,3.43
2019-03-04T02:54:01.036Z,3.03
2019-03-04T02:56:28.204Z,3.30
2019-03-04T02:58:55.404Z,2.80
2019-03-04T03:01:23.253Z,4.83
2019-03-04T03:03:50.451Z,2.73
2019-03-04T03:06:17.632Z,2.90
2019-03-04T03:08:44.836Z,2.83
2019-03-04T03:11:12.515Z,3.47
2019-03-04T03:13:39.760Z,2.23
2019-03-04T03:16:06.958Z,2.67
2019-03-04T03:18:34.244Z,2.40
2019-03-04T03:21:01.435Z,2.70
2019-03-04T03:23:28.590Z,3.07
2019-03-04T03:25:55.771Z,2.83
2019-03-04T03:28:22.963Z,2.80
2019-03-04T03:30:50.718Z,3.33
2019-03-04T03:33:17.995Z,3.60
2019-03-04T03:35:45.166Z,3.60
2019-03-04T03:38:12.889Z,2.50
2019-03-04T03:40:40.054Z,2.53
2019-03-04T03:43:07.256Z,2.87
2019-03-04T03:45:34.414Z,2.60
2019-03-04T03:48:01.579Z,2.90
2019-03-04T03:50:28.769Z,2.73
2019-03-04T03:52:55.948Z,2.80
2019-03-04T03:55:23.129Z,2.70
2019-03-04T03:57:50.298Z,3.73
2019-03-04T04:00:21.252Z,3.13
2019-03-04T04:02:48.482Z,3.20
2019-03-04T04:05:15.650Z,2.93
2019-03-04T04:07:42.838Z,2.80
2019-03-04T04:10:14.313Z,2.80
2019-03-04T04:12:41.497Z,3.13
2019-03-04T04:15:10.050Z,2.90
2019-03-04T04:17:37.246Z,2.83
2019-03-04T04:20:06.384Z,3.13
2019-03-04T04:22:33.547Z,3.00
2019-03-04T04:25:00.737Z,4.53
2019-03-04T04:27:27.927Z,3.33
2019-03-04T04:29:55.098Z,2.90
2019-03-04T04:32:22.850Z,3.33
2019-03-04T04:34:50.068Z,3.60
2019-03-04T04:37:17.761Z,2.30
2019-03-04T04:39:45.010Z,3.20
2019-03-04T04:42:12.208Z,3.63
2019-03-04T04:44:39.374Z,2.57
2019-03-04T04:47:06.551Z,3.77
2019-03-04T04:49:33.730Z,2.40
2019-03-04T04:52:00.910Z,2.87
2019-03-04T04:54:28.092Z,3.00
2019-03-04T04:56:55.262Z,2.57
2019-03-04T04:59:22.447Z,2.73
2019-03-04T05:01:49.638Z,2.73
2019-03-04T05:04:16.868Z,3.07
2019-03-04T05:06:44.049Z,3.40
2019-03-04T05:09:11.218Z,2.93
2019-03-04T05:11:38.399Z,2.57
2019-03-04T05:14:06.352Z,3.20
2019-03-04T05:16:33.789Z,2.83
2019-03-04T05:19:01.026Z,3.67
2019-03-04T05:21:28.201Z,2.93
2019-03-04T05:23:55.397Z,2.40
2019-03-04T05:26:22.555Z,2.43
2019-03-04T05:28:49.735Z,2.73
2019-03-04T05:31:16.935Z,3.07
2019-03-04T05:33:44.109Z,3.10
2019-03-04T05:36:11.263Z,2.90
2019-03-04T05:38:38.461Z,3.80
2019-03-04T05:41:05.642Z,2.63
2019-03-04T05:43:32.845Z,2.80
2019-03-04T05:46:00.018Z,2.43
2019-03-04T05:48:27.184Z,2.63
2019-03-04T05:50:54.891Z,3.00
2019-03-04T05:53:22.062Z,2.93
2019-03-04T05:55:49.265Z,3.10
2019-03-04T05:58:16.450Z,2.73
2019-03-04T06:00:45.262Z,3.00
2019-03-04T06:03:14.075Z,4.10
2019-03-04T06:05:41.250Z,3.03
2019-03-04T06:08:13.013Z,2.87
2019-03-04T06:10:40.202Z,2.70
2019-03-04T06:13:07.375Z,2.57
2019-03-04T06:15:35.009Z,2.93
2019-03-04T06:18:02.196Z,3.00
2019-03-04T06:20:29.910Z,3.37
2019-03-04T06:22:57.131Z,3.13
2019-03-04T06:25:26.003Z,3.60
2019-03-04T06:27:53.169Z,2.50
2019-03-04T06:30:22.398Z,2.93
2019-03-04T06:32:49.575Z,3.03
2019-03-04T06:35:16.743Z,2.63
2019-03-04T06:37:43.910Z,2.60
2019-03-04T06:40:12.506Z,2.17
2019-03-04T06:42:39.672Z,2.27
2019-03-04T06:45:08.462Z,2.30
2019-03-04T06:47:35.650Z,2.33
2019-03-04T06:50:02.828Z,2.63
2019-03-04T06:52:30.022Z,2.77
2019-03-04T06:55:10.871Z,2.80
2019-03-04T06:57:38.065Z,2.73
2019-03-04T07:00:15.719Z,2.63
2019-03-04T07:02:44.178Z,2.60
2019-03-04T07:05:25.318Z,2.50
2019-03-04T07:07:52.589Z,2.13
2019-03-04T07:10:19.765Z,3.73
2019-03-04T07:12:46.958Z,2.90
2019-03-04T07:15:14.135Z,3.13
2019-03-04T07:17:41.326Z,2.40
2019-03-04T07:20:12.888Z,2.50
2019-03-04T07:22:40.050Z,2.90
2019-03-04T07:25:08.855Z,2.10
2019-03-04T07:27:36.029Z,2.50
2019-03-04T07:30:05.862Z,2.57
2019-03-04T07:32:33.031Z,2.20
2019-03-04T07:35:00.334Z,2.43
2019-03-04T07:37:27.847Z,2.57
2019-03-04T07:39:55.114Z,2.10
2019-03-04T07:42:22.317Z,2.57
2019-03-04T07:44:49.491Z,2.33
2019-03-04T07:47:16.668Z,2.03
2019-03-04T07:49:45.475Z,2.20
2019-03-04T07:52:12.644Z,2.47
2019-03-04T07:54:40.535Z,2.90
2019-03-04T07:57:07.694Z,2.00
2019-03-04T07:59:34.887Z,2.67
2019-03-04T08:02:02.068Z,2.33
2019-03-04T08:04:29.774Z,2.43
2019-03-04T08:06:58.659Z,2.73
2019-03-04T08:09:30.358Z,2.00
2019-03-04T08:12:02.168Z,2.13
2019-03-04T08:14:29.346Z,2.53
2019-03-04T08:16:57.073Z,2.27
2019-03-04T08:19:24.256Z,2.87
2019-03-04T08:21:51.437Z,2.20
2019-03-04T08:24:18.622Z,2.97
2019-03-04T08:26:45.787Z,2.90
2019-03-04T08:29:12.958Z,2.70
2019-03-04T08:31:40.223Z,2.50
2019-03-04T08:34:09.287Z,2.43
2019-03-04T08:36:36.294Z,2.63
2019-03-04T08:39:05.244Z,2.30
2019-03-04T08:41:32.446Z,2.30
2019-03-04T08:43:59.661Z,2.27
2019-03-04T08:46:26.844Z,2.30
2019-03-04T08:48:54.087Z,2.70
2019-03-04T08:51:21.263Z,2.30
2019-03-04T08:53:48.442Z,2.23
2019-03-04T08:56:15.652Z,2.20
2019-03-04T08:58:42.816Z,2.20
2019-03-04T09:01:10.006Z,2.23
2019-03-04T09:03:37.192Z,2.37
2019-03-04T09:06:04.979Z,1.93
2019-03-04T09:08:32.654Z,2.47
2019-03-04T09:10:59.828Z,2.20
2019-03-04T09:13:27.002Z,2.80
2019-03-04T09:15:54.192Z,2.07
2019-03-04T09:18:21.389Z,1.97
2019-03-04T09:20:49.308Z,2.73
2019-03-04T09:23:16.472Z,2.57
2019-03-04T09:25:54.232Z,2.87
2019-03-04T09:28:21.436Z,2.43
2019-03-04T09:30:48.615Z,3.53
2019-03-04T09:33:15.792Z,1.97
2019-03-04T09:35:42.969Z,2.30
2019-03-04T09:38:10.145Z,2.23
2019-03-04T09:40:37.330Z,3.33
2019-03-04T09:43:05.178Z,2.90
2019-03-04T09:45:38.944Z,1.73
2019-03-04T09:48:01.829Z,2.10
2019-03-04T09:50:29.670Z,1.80
2019-03-04T09:52:56.845Z,2.23
2019-03-04T09:55:24.020Z,2.50
2019-03-04T09:57:51.190Z,2.33
2019-03-04T10:00:26.020Z,2.13
2019-03-04T10:02:54.849Z,1.90
2019-03-04T10:05:23.727Z,1.97
2019-03-04T10:07:52.556Z,2.53
2019-03-04T10:10:24.018Z,2.70
2019-03-04T10:12:55.728Z,1.90
2019-03-04T10:15:41.020Z,3.57
2019-03-04T10:18:12.553Z,2.07
2019-03-04T10:20:41.353Z,2.20
2019-03-04T10:23:12.823Z,2.60
2019-03-04T10:25:41.611Z,2.50
2019-03-04T10:28:26.873Z,1.70
2019-03-04T10:30:55.680Z,1.97
2019-03-04T10:33:27.218Z,2.00
2019-03-04T10:35:56.011Z,2.17
2019-03-04T10:38:42.913Z,2.00
2019-03-04T10:41:23.964Z,2.37
2019-03-04T10:44:01.438Z,2.30
2019-03-04T10:46:30.271Z,3.30
2019-03-04T10:48:57.876Z,2.40
2019-03-04T10:51:25.053Z,1.83
2019-03-04T10:53:52.279Z,1.83
2019-03-04T10:56:19.450Z,1.70
2019-03-04T10:58:46.621Z,2.03
2019-03-04T11:01:13.814Z,1.80
2019-03-04T11:03:41.045Z,1.70
2019-03-04T11:06:08.214Z,2.33
2019-03-04T11:08:35.894Z,1.80
2019-03-04T11:11:03.083Z,1.47
2019-03-04T11:13:30.244Z,1.50
2019-03-04T11:15:57.437Z,1.13
2019-03-04T11:18:24.607Z,1.20
2019-03-04T11:20:51.779Z,1.00
2019-03-04T11:23:18.947Z,1.60
2019-03-04T11:25:46.142Z,1.07
2019-03-04T11:28:13.316Z,1.23
2019-03-04T11:30:40.493Z,1.00
2019-03-04T11:33:07.676Z,0.60
2019-03-04T11:35:34.860Z,0.70
2019-03-04T11:38:02.145Z,0.77
2019-03-04T11:40:40.860Z,0.60
2019-03-04T11:43:08.041Z,0.97
2019-03-04T11:45:35.219Z,0.60
2019-03-04T11:48:02.450Z,0.70
2019-03-04T11:50:29.927Z,0.53
2019-03-04T11:52:57.103Z,0.83
2019-03-04T11:55:25.978Z,0.63
2019-03-04T11:57:53.160Z,0.60
2019-03-04T12:00:23.646Z,0.80
2019-03-04T12:02:50.819Z,0.60
2019-03-04T12:05:18.597Z,0.60
2019-03-04T12:07:46.350Z,0.50
2019-03-04T12:10:14.268Z,0.50
2019-03-04T12:12:41.443Z,0.67
2019-03-04T12:15:10.490Z,0.70
2019-03-04T12:17:37.659Z,0.50
2019-03-04T12:20:05.813Z,0.50
2019-03-04T12:22:33.004Z,0.80
2019-03-04T12:25:00.289Z,0.50
2019-03-04T12:27:27.529Z,0.67
2019-03-04T12:29:54.693Z,0.90
2019-03-04T12:32:23.048Z,0.50
2019-03-04T12:34:50.298Z,0.60
2019-03-04T12:37:17.482Z,0.60
2019-03-04T12:39:44.746Z,0.80
2019-03-04T12:42:11.925Z,0.73
2019-03-04T12:44:39.112Z,0.80
2019-03-04T12:47:06.287Z,0.77
2019-03-04T12:49:33.479Z,1.07
2019-03-04T12:52:00.719Z,1.00
2019-03-04T12:54:27.909Z,0.97
2019-03-04T12:56:55.086Z,0.83
2019-03-04T12:59:22.256Z,0.83
2019-03-04T13:01:49.440Z,0.63
2019-03-04T13:04:16.644Z,0.80
2019-03-04T13:06:43.818Z,0.70
2019-03-04T13:09:14.578Z,0.67
2019-03-04T13:11:39.893Z,0.57
2019-03-04T13:14:07.085Z,1.10
2019-03-04T13:16:34.274Z,0.70
2019-03-04T13:19:01.457Z,1.00
2019-03-04T13:21:28.634Z,0.90
2019-03-04T13:23:55.807Z,0.80
2019-03-04T13:26:22.984Z,0.60
2019-03-04T13:28:50.138Z,1.67
2019-03-04T13:31:17.322Z,1.00
2019-03-04T13:33:44.494Z,0.60
2019-03-04T13:36:12.465Z,0.60
2019-03-04T13:38:39.643Z,0.70
2019-03-04T13:41:07.395Z,0.60
2019-03-04T13:43:34.600Z,0.93
2019-03-04T13:46:02.331Z,0.60
2019-03-04T13:48:29.505Z,0.70
2019-03-04T13:50:57.026Z,0.87
2019-03-04T13:53:24.187Z,1.00
2019-03-04T13:55:51.369Z,0.57
2019-03-04T13:58:19.159Z,0.70
2019-03-04T14:00:46.327Z,1.00
2019-03-04T14:03:13.889Z,1.47
2019-03-04T14:05:41.066Z,0.77
2019-03-04T14:08:08.230Z,0.97
2019-03-04T14:10:42.821Z,1.40
2019-03-04T14:13:10.002Z,0.60
2019-03-04T14:15:38.243Z,0.87
2019-03-04T14:18:05.447Z,0.80
2019-03-04T14:20:33.051Z,0.60
2019-03-04T14:23:00.226Z,0.40
2019-03-04T14:25:27.422Z,0.50
2019-03-04T14:27:55.172Z,0.50
2019-03-04T14:30:23.313Z,0.70
2019-03-04T14:32:50.506Z,1.03
2019-03-04T14:35:17.689Z,0.70
2019-03-04T14:37:45.430Z,0.50
2019-03-04T14:40:13.978Z,0.70
2019-03-04T14:42:41.156Z,1.00
2019-03-04T14:45:09.946Z,1.37
2019-03-04T14:47:37.708Z,0.90
2019-03-04T14:50:09.931Z,0.80
2019-03-04T14:52:35.425Z,0.67
2019-03-04T14:55:02.601Z,0.80
2019-03-04T14:57:29.775Z,0.90
2019-03-04T14:59:56.963Z,0.70
2019-03-04T15:02:24.142Z,0.60
2019-03-04T15:04:51.325Z,0.53
2019-03-04T15:07:18.874Z,0.87
2019-03-04T15:09:49.280Z,1.00
2019-03-04T15:12:15.386Z,0.77
2019-03-04T15:14:43.450Z,1.00
2019-03-04T15:17:12.819Z,0.83
2019-03-04T15:19:39.996Z,1.10
2019-03-04T15:22:07.674Z,0.87
2019-03-04T15:24:34.834Z,0.93
2019-03-04T15:27:02.015Z,1.00
2019-03-04T15:29:29.196Z,0.93
2019-03-04T15:31:56.385Z,0.97
2019-03-04T15:34:23.556Z,1.07
2019-03-04T15:36:50.741Z,1.90
2019-03-04T15:39:22.852Z,0.70
2019-03-04T15:41:46.829Z,1.03
2019-03-04T15:44:13.999Z,1.43
2019-03-04T15:46:41.174Z,1.10
2019-03-04T15:49:08.350Z,1.10
2019-03-04T15:51:35.507Z,0.97
2019-03-04T15:54:02.710Z,1.30
2019-03-04T15:56:30.399Z,1.20
2019-03-04T15:58:57.578Z,1.07
2019-03-04T16:01:24.797Z,0.87
2019-03-04T16:03:51.966Z,1.20
2019-03-04T16:06:19.607Z,0.93
2019-03-04T16:08:46.796Z,1.23
2019-03-04T16:11:14.511Z,1.00
2019-03-04T16:13:41.706Z,1.07
2019-03-04T16:16:08.879Z,0.80
2019-03-04T16:18:36.055Z,0.80
2019-03-04T16:21:18.286Z,0.67
2019-03-04T16:23:45.461Z,0.60
2019-03-04T16:26:12.642Z,0.70
2019-03-04T16:28:39.851Z,1.00
2019-03-04T16:31:07.264Z,0.77
2019-03-04T16:33:34.486Z,0.50
2019-03-04T16:36:01.726Z,0.73
2019-03-04T16:38:28.889Z,1.00
2019-03-04T16:40:56.682Z,0.50
2019-03-04T16:43:23.913Z,0.57
2019-03-04T16:45:51.153Z,0.50
2019-03-04T16:48:18.374Z,0.57
2019-03-04T16:50:47.752Z,0.70
2019-03-04T16:53:22.449Z,0.70
2019-03-04T16:55:49.620Z,0.50
2019-03-04T16:58:17.476Z,0.50
2019-03-04T17:00:45.257Z,0.50
2019-03-04T17:03:12.428Z,0.60
2019-03-04T17:05:39.927Z,0.73
2019-03-04T17:08:07.067Z,0.93
2019-03-04T17:10:34.624Z,0.97
2019-03-04T17:13:01.801Z,0.80
2019-03-04T17:15:28.981Z,0.60
2019-03-04T17:17:56.204Z,0.70
2019-03-04T17:20:23.431Z,0.80
2019-03-04T17:22:50.616Z,1.03
2019-03-04T17:25:25.585Z,0.80
2019-03-04T17:27:52.821Z,1.00
2019-03-04T17:30:20.260Z,0.77
2019-03-04T17:32:47.478Z,0.90
2019-03-04T17:35:16.360Z,0.90
2019-03-04T17:37:43.610Z,0.93
2019-03-04T17:40:11.874Z,0.97
2019-03-04T17:42:39.037Z,1.03
2019-03-04T17:45:07.857Z,1.23
2019-03-04T17:47:35.625Z,1.10
2019-03-04T17:50:02.793Z,0.90
2019-03-04T17:52:29.992Z,1.17
2019-03-04T17:54:57.166Z,1.10
2019-03-04T17:57:24.473Z,0.93
2019-03-04T17:59:51.651Z,1.63
2019-03-04T18:02:19.397Z,0.90
2019-03-04T18:04:46.618Z,1.00
2019-03-04T18:07:13.776Z,1.80
2019-03-04T18:09:40.960Z,1.00
2019-03-04T18:12:08.140Z,1.37
2019-03-04T18:14:35.827Z,1.13
2019-03-04T18:17:03.045Z,1.47
2019-03-04T18:19:30.748Z,1.23
2019-03-04T18:21:57.922Z,1.37
2019-03-04T18:24:25.077Z,1.10
2019-03-04T18:26:52.751Z,1.50
2019-03-04T18:29:21.541Z,1.20
2019-03-04T18:31:50.347Z,1.50
2019-03-04T18:34:30.231Z,2.27
2019-03-04T18:37:02.648Z,1.60
2019-03-04T18:39:41.285Z,1.53
2019-03-04T18:42:25.474Z,1.70
2019-03-04T18:45:09.332Z,1.60
2019-03-04T18:47:40.933Z,1.37
2019-03-04T18:50:08.107Z,1.40
2019-03-04T18:52:35.301Z,1.90
2019-03-04T18:55:02.493Z,1.50
2019-03-04T18:57:29.650Z,1.63
2019-03-04T18:59:56.839Z,1.57
2019-03-04T19:02:24.018Z,1.60
2019-03-04T19:04:51.182Z,1.47
2019-03-04T19:07:18.374Z,1.60
2019-03-04T19:09:45.554Z,1.70
2019-03-04T19:12:13.075Z,1.67
2019-03-04T19:14:40.254Z,1.47
2019-03-04T19:17:08.040Z,1.60
2019-03-04T19:19:35.410Z,1.80
2019-03-04T19:22:02.574Z,1.90
2019-03-04T19:24:29.770Z,1.80
2019-03-04T19:26:56.967Z,2.00
2019-03-04T19:29:24.136Z,1.47
2019-03-04T19:31:51.501Z,1.60
2019-03-04T19:34:19.137Z,2.07
2019-03-04T19:36:46.319Z,1.80
2019-03-04T19:39:13.491Z,1.30
2019-03-04T19:41:40.683Z,1.67
2019-03-04T19:44:07.874Z,1.50
2019-03-04T19:46:35.050Z,1.47
2019-03-04T19:49:02.242Z,1.50
2019-03-04T19:51:29.411Z,1.80
2019-03-04T19:53:56.590Z,1.73
2019-03-04T19:56:26.001Z,1.67
2019-03-04T19:58:52.682Z,1.40
2019-03-04T20:01:19.875Z,1.80
2019-03-04T20:03:47.062Z,2.17
2019-03-04T20:06:14.321Z,1.50
2019-03-04T20:08:41.495Z,1.50
2019-03-04T20:11:08.707Z,1.43
2019-03-04T20:13:35.976Z,1.70
2019-03-04T20:16:03.917Z,1.47
2019-03-04T20:18:31.076Z,2.17
2019-03-04T20:20:58.282Z,1.73
2019-03-04T20:23:25.859Z,1.80
2019-03-04T20:25:53.336Z,1.67
2019-03-04T20:28:20.911Z,1.80
2019-03-04T20:30:48.097Z,1.80
2019-03-04T20:33:15.254Z,2.00
2019-03-04T20:35:42.447Z,1.97
2019-03-04T20:38:13.858Z,2.40
2019-03-04T20:40:41.025Z,2.20
2019-03-04T20:43:08.972Z,2.03
2019-03-04T20:45:36.131Z,2.33
2019-03-04T20:48:03.774Z,1.47
2019-03-04T20:50:30.976Z,1.50
2019-03-04T20:52:58.148Z,2.97
2019-03-04T20:55:25.347Z,2.13
2019-03-04T20:57:52.525Z,2.50
2019-03-04T21:00:22.654Z,2.50
2019-03-04T21:02:49.902Z,2.87
2019-03-04T21:05:17.150Z,1.50
2019-03-04T21:07:44.434Z,1.57
2019-03-04T21:10:11.967Z,1.50
2019-03-04T21:12:39.267Z,1.50
2019-03-04T21:15:08.058Z,1.70
2019-03-04T21:17:35.239Z,1.80
2019-03-04T21:20:02.605Z,1.70
2019-03-04T21:22:30.057Z,1.43
2019-03-04T21:24:57.751Z,1.80
2019-03-04T21:27:24.914Z,1.67
2019-03-04T21:29:56.668Z,2.00
2019-03-04T21:32:28.458Z,3.20
2019-03-04T21:34:57.270Z,2.40
2019-03-04T21:37:26.023Z,1.60
2019-03-04T21:39:57.483Z,2.00
2019-03-04T21:42:32.247Z,2.00
2019-03-04T21:45:01.049Z,2.23
2019-03-04T21:47:35.670Z,1.70
2019-03-04T21:50:03.174Z,3.10
2019-03-04T21:52:34.982Z,1.70
2019-03-04T21:55:03.037Z,2.10
2019-03-04T21:57:31.504Z,2.20
2019-03-04T21:59:58.711Z,2.57
2019-03-04T22:02:33.384Z,3.53
2019-03-04T22:05:02.230Z,1.80
2019-03-04T22:07:29.545Z,1.90
2019-03-04T22:09:57.226Z,1.77
2019-03-04T22:12:24.416Z,2.47
2019-03-04T22:14:51.652Z,2.20
2019-03-04T22:17:18.920Z,2.67
2019-03-04T22:19:46.165Z,2.60
2019-03-04T22:22:13.422Z,2.47
2019-03-04T22:24:40.675Z,2.07
2019-03-04T22:27:07.913Z,2.47
2019-03-04T22:29:35.091Z,2.23
2019-03-04T22:32:02.262Z,2.50
2019-03-04T22:34:29.433Z,2.13
2019-03-04T22:36:56.615Z,2.50
2019-03-04T22:39:23.844Z,2.40
2019-03-04T22:41:51.028Z,2.13
2019-03-04T22:44:18.291Z,2.10
2019-03-04T22:46:45.526Z,3.10
2019-03-04T22:49:13.244Z,2.03
2019-03-04T22:51:40.418Z,2.53
2019-03-04T22:54:08.160Z,2.67
2019-03-04T22:56:35.416Z,2.57
2019-03-04T22:59:02.619Z,2.33
2019-03-04T23:01:31.862Z,2.30
2019-03-04T23:04:00.711Z,2.23
2019-03-04T23:06:32.292Z,2.90
2019-03-04T23:08:59.471Z,2.43
2019-03-04T23:11:28.262Z,2.77
2019-03-04T23:13:57.310Z,2.87
2019-03-04T23:16:25.858Z,2.07
2019-03-04T23:18:53.023Z,3.00
2019-03-04T23:21:20.220Z,2.67
2019-03-04T23:23:47.404Z,2.20
2019-03-04T23:26:14.570Z,2.70
2019-03-04T23:28:42.177Z,2.13
2019-03-04T23:31:09.411Z,1.67
2019-03-04T23:33:37.098Z,2.80
2019-03-04T23:36:04.277Z,2.20
2019-03-04T23:38:31.451Z,2.87
2019-03-04T23:40:58.640Z,2.80
2019-03-04T23:43:25.883Z,1.93
2019-03-04T23:45:53.747Z,3.23
2019-03-04T23:48:20.928Z,3.00
2019-03-04T23:50:48.098Z,2.77
2019-03-04T23:53:15.261Z,2.93
2019-03-04T23:55:42.450Z,3.07
2019-03-04T23:58:10.216Z,2.40
